Time;durP1;ratioP1;P1;durP2;ratioP2;P2;SDS_P1;SDS_P2;PMS_P1;PMS_P2;Temp;Humidity;BMP_temperature;BMP_pressure;BME280_temperature;BME280_humidity;BME280_pressure;Samples;Min_cycle;Max_cycle;Signal;HPM_P1;HPM_P2
2021/05/10 00:01:01;;;;;;;5.80;5.40;;;19.20;30.00;;;;;;4993059;28;20205;-74
2021/05/10 00:03:27;;;;;;;5.50;5.00;;;19.20;29.50;;;;;;4993335;28;20172;-74
2021/05/10 00:05:53;;;;;;;5.33;4.93;;;19.20;29.40;;;;;;4989240;28;20496;-74
2021/05/10 00:08:21;;;;;;;4.90;4.70;;;19.20;29.50;;;;;;4992709;28;20492;-74
2021/05/10 00:10:47;;;;;;;5.07;4.73;;;19.20;29.40;;;;;;4993134;28;20256;-74
2021/05/10 00:13:15;;;;;;;4.90;4.60;;;19.20;29.40;;;;;;4989342;28;20501;-74
2021/05/10 00:15:41;;;;;;;4.93;4.63;;;19.20;29.40;;;;;;4991387;28;20184;-74
2021/05/10 00:18:06;;;;;;;5.47;5.10;;;19.20;29.50;;;;;;4991861;28;20417;-74
2021/05/10 00:20:34;;;;;;;4.50;4.30;;;19.20;29.40;;;;;;4993243;28;20293;-74
2021/05/10 00:23:00;;;;;;;5.20;4.90;;;19.20;29.40;;;;;;4993169;28;20174;-74
2021/05/10 00:25:27;;;;;;;4.90;4.57;;;19.20;29.40;;;;;;4993003;28;20782;-73
2021/05/10 00:27:53;;;;;;;4.43;4.23;;;19.20;29.40;;;;;;4993435;28;20504;-74
2021/05/10 00:30:20;;;;;;;5.37;4.87;;;19.20;29.40;;;;;;4992806;28;20540;-73
2021/05/10 00:32:46;;;;;;;5.30;4.60;;;19.20;29.40;;;;;;4993058;28;20178;-74
2021/05/10 00:35:13;;;;;;;4.73;4.43;;;19.20;29.40;;;;;;4992827;28;20847;-74
2021/05/10 00:37:39;;;;;;;4.43;4.20;;;19.20;29.40;;;;;;4992014;28;20425;-73
2021/05/10 00:40:08;;;;;;;4.83;4.53;;;19.20;29.40;;;;;;4992958;28;20441;-74
2021/05/10 00:42:34;;;;;;;4.63;4.33;;;19.10;29.40;;;;;;4993481;28;20649;-74
2021/05/10 00:45:00;;;;;;;5.10;4.80;;;19.20;29.40;;;;;;4992700;28;20405;-74
2021/05/10 00:47:25;;;;;;;4.57;4.20;;;19.20;29.50;;;;;;4992856;28;20182;-74
2021/05/10 00:49:51;;;;;;;4.60;4.30;;;19.20;29.40;;;;;;4992853;28;20197;-74
2021/05/10 00:52:16;;;;;;;4.80;4.37;;;19.10;29.40;;;;;;4991050;28;20251;-74
2021/05/10 00:54:42;;;;;;;4.30;4.10;;;19.10;29.40;;;;;;4992744;28;20668;-74
2021/05/10 00:57:08;;;;;;;4.63;4.27;;;19.20;29.40;;;;;;4992680;28;20186;-74
2021/05/10 00:59:34;;;;;;;4.53;4.33;;;19.10;29.40;;;;;;4991134;28;20198;-74
2021/05/10 01:02:00;;;;;;;4.20;4.00;;;19.20;29.50;;;;;;4991459;28;20543;-74
2021/05/10 01:04:25;;;;;;;4.80;4.43;;;19.20;29.40;;;;;;4992798;28;20667;-74
2021/05/10 01:06:51;;;;;;;4.77;4.47;;;19.20;29.40;;;;;;4992086;28;20516;-74
2021/05/10 01:09:17;;;;;;;4.40;4.10;;;19.20;30.00;;;;;;4992926;28;20543;-74
2021/05/10 01:11:42;;;;;;;4.50;4.30;;;19.20;29.40;;;;;;4991345;28;20641;-74
2021/05/10 01:14:08;;;;;;;4.17;3.97;;;19.10;29.40;;;;;;4992378;28;20178;-73
2021/05/10 01:16:33;;;;;;;4.57;4.30;;;19.10;29.40;;;;;;4992364;28;20602;-74
2021/05/10 01:19:02;;;;;;;4.40;4.10;;;19.10;29.40;;;;;;4992791;28;20280;-74
2021/05/10 01:21:29;;;;;;;4.30;4.00;;;19.10;29.40;;;;;;4990709;28;20641;-74
2021/05/10 01:23:56;;;;;;;4.93;4.23;;;19.10;29.40;;;;;;4991346;28;20417;-74
2021/05/10 01:26:21;;;;;;;4.27;3.97;;;19.10;29.40;;;;;;4991283;28;20471;-74
2021/05/10 01:28:47;;;;;;;4.00;3.80;;;19.20;30.00;;;;;;4991918;28;20444;-74
2021/05/10 01:31:15;;;;;;;4.10;3.90;;;19.20;29.40;;;;;;4992552;28;20179;-74
2021/05/10 01:33:41;;;;;;;4.20;4.00;;;19.10;29.40;;;;;;4991232;28;20210;-74
2021/05/10 01:36:07;;;;;;;4.63;4.23;;;19.10;29.40;;;;;;4991717;28;20461;-74
2021/05/10 01:38:32;;;;;;;4.33;4.03;;;19.10;29.40;;;;;;4992402;28;20716;-74
2021/05/10 01:40:58;;;;;;;4.70;4.40;;;19.10;29.40;;;;;;4992387;28;20206;-74
2021/05/10 01:43:23;;;;;;;3.80;3.60;;;19.10;29.40;;;;;;4991934;28;20281;-74
2021/05/10 01:45:49;;;;;;;4.60;4.40;;;19.10;29.40;;;;;;4992127;28;20637;-73
2021/05/10 01:48:15;;;;;;;4.10;3.90;;;19.10;29.40;;;;;;4993528;28;20181;-74
2021/05/10 01:50:43;;;;;;;4.20;4.00;;;19.10;29.40;;;;;;4995820;28;20184;-74
2021/05/10 01:53:09;;;;;;;4.37;4.07;;;19.10;29.40;;;;;;4996259;28;20428;-74
2021/05/10 01:55:36;;;;;;;4.50;4.20;;;19.10;29.40;;;;;;4994519;28;20503;-74
2021/05/10 01:58:04;;;;;;;4.10;3.90;;;19.10;29.40;;;;;;4995786;28;20444;-74
2021/05/10 02:00:33;;;;;;;4.50;4.20;;;19.10;29.40;;;;;;4995969;28;20835;-74
2021/05/10 02:03:07;;;;;;;4.33;4.13;;;19.10;29.40;;;;;;4996022;28;20428;-74
2021/05/10 02:05:33;;;;;;;4.20;3.93;;;19.10;29.40;;;;;;4996238;28;20492;-73
2021/05/10 02:08:00;;;;;;;4.03;3.83;;;19.10;29.40;;;;;;4997289;28;20448;-74
2021/05/10 02:10:26;;;;;;;4.60;4.27;;;19.10;29.40;;;;;;4997805;28;20679;-74
2021/05/10 02:13:24;;;;;;;4.57;4.17;;;19.10;29.40;;;;;;4996724;28;20417;-74
2021/05/10 02:15:55;;;;;;;4.00;3.80;;;19.10;29.40;;;;;;4995925;28;20225;-74
2021/05/10 02:18:24;;;;;;;3.67;3.50;;;19.10;29.40;;;;;;4995721;28;20413;-74
2021/05/10 02:20:51;;;;;;;4.20;3.90;;;19.00;29.30;;;;;;4995678;28;20453;-74
2021/05/10 02:23:19;;;;;;;4.50;4.20;;;19.10;29.40;;;;;;4995795;28;20919;-74
2021/05/10 02:25:47;;;;;;;3.93;3.73;;;19.00;29.30;;;;;;4994111;28;20487;-74
2021/05/10 02:28:15;;;;;;;3.57;3.37;;;19.10;29.50;;;;;;4995477;28;20417;-74
2021/05/10 02:30:42;;;;;;;4.13;3.93;;;19.10;29.40;;;;;;4995750;28;20482;-74
2021/05/10 02:33:10;;;;;;;3.77;3.57;;;19.00;29.40;;;;;;4994182;28;20432;-74
2021/05/10 02:35:36;;;;;;;4.20;4.00;;;19.00;29.40;;;;;;4995034;28;20409;-74
2021/05/10 02:38:01;;;;;;;3.90;3.70;;;19.00;29.40;;;;;;4995414;28;20418;-75
2021/05/10 02:40:27;;;;;;;4.00;3.80;;;19.00;29.30;;;;;;4995080;28;20205;-74
2021/05/10 02:42:53;;;;;;;3.77;3.60;;;19.00;29.30;;;;;;4995060;28;20188;-73
2021/05/10 02:45:19;;;;;;;6.60;4.10;;;19.00;29.40;;;;;;4995159;28;20174;-74
2021/05/10 02:47:46;;;;;;;4.07;3.80;;;19.00;29.40;;;;;;4995161;28;20177;-74
2021/05/10 02:50:18;;;;;;;4.00;3.80;;;19.00;29.40;;;;;;4993670;28;20471;-74
2021/05/10 02:52:44;;;;;;;4.47;4.27;;;19.00;29.40;;;;;;4993704;28;20440;-74
2021/05/10 02:55:10;;;;;;;4.50;4.30;;;19.00;29.50;;;;;;4994645;28;20409;-74
2021/05/10 02:57:36;;;;;;;4.03;3.83;;;19.00;29.40;;;;;;4994743;28;20451;-74
2021/05/10 03:00:10;;;;;;;4.30;4.00;;;19.00;30.00;;;;;;4994056;28;20843;-74
2021/05/10 03:02:36;;;;;;;3.90;3.70;;;19.00;29.40;;;;;;4994948;28;20413;-74
2021/05/10 03:05:06;;;;;;;4.10;3.90;;;19.00;29.40;;;;;;4994547;28;20493;-74
2021/05/10 03:07:32;;;;;;;4.20;3.90;;;19.00;29.50;;;;;;4994853;28;20456;-74
2021/05/10 03:09:58;;;;;;;4.20;4.00;;;19.00;29.50;;;;;;4994573;28;20422;-74
2021/05/10 03:12:24;;;;;;;3.60;3.40;;;19.00;29.40;;;;;;4994563;28;20779;-74
2021/05/10 03:14:49;;;;;;;4.20;4.00;;;19.00;29.40;;;;;;4994608;28;20182;-74
2021/05/10 03:17:15;;;;;;;3.90;3.70;;;19.00;29.50;;;;;;4994440;28;20177;-74
2021/05/10 03:19:40;;;;;;;3.80;3.60;;;19.00;29.50;;;;;;4994260;28;20237;-74
2021/05/10 03:22:06;;;;;;;4.40;3.97;;;19.00;29.50;;;;;;4993096;28;20566;-74
2021/05/10 03:24:31;;;;;;;4.13;3.83;;;19.00;29.50;;;;;;4994553;28;20174;-74
2021/05/10 03:26:57;;;;;;;4.60;4.30;;;19.00;29.50;;;;;;4992726;28;20181;-74
2021/05/10 03:29:22;;;;;;;4.70;4.40;;;19.00;29.50;;;;;;4993237;28;20221;-74
2021/05/10 03:31:48;;;;;;;4.17;3.97;;;19.00;29.50;;;;;;4994305;28;20186;-74
2021/05/10 03:34:13;;;;;;;3.90;3.70;;;19.00;29.60;;;;;;4992897;28;20232;-74
2021/05/10 03:36:39;;;;;;;4.40;4.20;;;19.00;29.50;;;;;;4993898;28;20182;-74
2021/05/10 03:39:05;;;;;;;4.33;4.13;;;19.00;29.50;;;;;;4994173;28;20224;-74
2021/05/10 03:41:30;;;;;;;4.33;4.13;;;19.00;29.50;;;;;;4993970;28;20224;-74
2021/05/10 03:43:59;;;;;;;4.43;4.23;;;19.00;29.50;;;;;;4992887;28;20676;-74
2021/05/10 03:46:25;;;;;;;3.80;3.60;;;19.00;29.50;;;;;;4993895;28;20177;-74
2021/05/10 03:48:51;;;;;;;4.10;3.90;;;19.00;29.50;;;;;;4993799;28;20805;-73
2021/05/10 03:51:17;;;;;;;3.30;3.17;;;19.00;29.60;;;;;;4992686;28;20409;-74
2021/05/10 03:53:43;;;;;;;3.60;3.40;;;19.00;29.50;;;;;;4992672;28;20186;-74
2021/05/10 03:56:10;;;;;;;3.50;3.40;;;19.00;29.50;;;;;;4993517;28;20649;-74
2021/05/10 03:58:36;;;;;;;4.20;4.00;;;19.00;29.50;;;;;;4993835;28;20189;-74
2021/05/10 04:01:01;;;;;;;4.10;3.90;;;19.00;29.50;;;;;;4993737;28;20548;-74
2021/05/10 04:03:31;;;;;;;3.60;3.40;;;19.00;29.50;;;;;;4992369;28;20728;-74
2021/05/10 04:13:55;;;;;;;4.07;3.87;;;19.00;29.40;;;;;;4993587;28;20455;-72
2021/05/10 04:16:21;;;;;;;4.07;3.80;;;19.00;29.30;;;;;;4993135;28;20421;-73
2021/05/10 04:18:46;;;;;;;4.20;4.00;;;19.00;29.30;;;;;;4993111;28;20519;-73
2021/05/10 04:21:12;;;;;;;4.10;3.90;;;19.00;29.30;;;;;;4993329;28;20205;-73
2021/05/10 04:23:37;;;;;;;4.30;4.10;;;19.00;29.30;;;;;;4993514;28;20210;-73
2021/05/10 04:26:03;;;;;;;4.00;3.90;;;19.10;29.40;;;;;;4992892;28;20413;-74
2021/05/10 04:28:30;;;;;;;4.70;4.40;;;19.10;29.40;;;;;;4993119;28;20170;-73
2021/05/10 04:30:56;;;;;;;4.60;4.40;;;19.10;30.80;;;;;;4993014;28;20520;-73
2021/05/10 04:33:25;;;;;;;5.30;4.90;;;19.30;30.90;;;;;;4993045;28;20797;-73
2021/05/10 04:35:51;;;;;;;4.87;4.47;;;19.30;31.00;;;;;;4991909;28;20782;-72
2021/05/10 04:38:17;;;;;;;4.40;4.10;;;19.50;31.30;;;;;;4992995;28;20410;-72
2021/05/10 04:40:42;;;;;;;5.50;5.00;;;19.50;31.10;;;;;;4992767;28;20198;-72
2021/05/10 04:43:08;;;;;;;4.63;4.33;;;19.60;30.90;;;;;;4993085;28;20353;-72
2021/05/10 04:45:34;;;;;;;5.80;5.30;;;19.60;30.60;;;;;;4992650;28;20209;-72
2021/05/10 04:48:00;;;;;;;4.40;4.07;;;19.70;30.60;;;;;;4992768;28;20264;-73
2021/05/10 04:50:25;;;;;;;4.23;3.93;;;19.80;31.40;;;;;;4992771;28;20519;-72
2021/05/10 04:52:52;;;;;;;4.30;4.00;;;19.90;30.80;;;;;;4993021;28;20174;-73
2021/05/10 04:55:18;;;;;;;4.93;3.70;;;19.90;30.60;;;;;;4975256;28;20234;-73
2021/05/10 04:57:44;;;;;;;4.60;4.30;;;19.90;30.50;;;;;;4992162;28;20401;-73
2021/05/10 05:00:12;;;;;;;4.60;4.00;;;19.90;30.40;;;;;;4991260;28;20730;-72
2021/05/10 05:02:37;;;;;;;4.40;4.00;;;20.00;30.30;;;;;;4991126;28;20417;-73
2021/05/10 05:05:05;;;;;;;3.77;3.47;;;20.10;30.00;;;;;;4992451;28;20468;-72
2021/05/10 05:07:31;;;;;;;4.03;3.83;;;20.00;30.00;;;;;;4992787;28;20198;-72
2021/05/10 05:09:56;;;;;;;4.23;4.03;;;20.00;30.20;;;;;;4992396;28;20439;-71
2021/05/10 05:12:22;;;;;;;5.77;3.97;;;20.00;30.20;;;;;;4993156;28;20638;-72
2021/05/10 05:14:47;;;;;;;4.87;4.30;;;19.90;30.30;;;;;;4992617;28;20178;-72
2021/05/10 05:17:13;;;;;;;4.00;3.73;;;20.00;30.40;;;;;;4992245;28;20177;-72
2021/05/10 05:19:38;;;;;;;4.70;4.30;;;19.90;30.30;;;;;;4992502;28;20221;-72
2021/05/10 05:22:04;;;;;;;4.50;4.20;;;19.90;30.30;;;;;;4992446;28;20198;-73
2021/05/10 05:24:30;;;;;;;4.63;4.17;;;19.90;30.50;;;;;;4992218;28;20667;-72
2021/05/10 05:26:55;;;;;;;5.27;4.70;;;19.90;30.60;;;;;;4992218;28;20244;-72
2021/05/10 05:29:24;;;;;;;4.47;3.90;;;19.90;30.90;;;;;;4992302;28;20201;-71
2021/05/10 05:31:50;;;;;;;4.50;4.20;;;19.90;30.90;;;;;;4992582;28;20184;-72
2021/05/10 05:34:17;;;;;;;6.23;4.00;;;19.90;31.00;;;;;;4991276;28;20413;-71
2021/05/10 05:36:43;;;;;;;7.80;4.53;;;19.90;30.80;;;;;;4992326;28;20445;-72
2021/05/10 05:39:08;;;;;;;5.03;4.47;;;19.90;30.90;;;;;;4992842;28;20533;-72
2021/05/10 05:41:35;;;;;;;6.17;4.40;;;19.90;31.00;;;;;;4993770;28;20202;-73
2021/05/10 05:44:00;;;;;;;6.37;4.50;;;19.90;30.60;;;;;;4993329;28;20217;-74
2021/05/10 05:46:28;;;;;;;4.40;4.10;;;19.90;31.10;;;;;;4993425;28;20904;-73
2021/05/10 05:48:55;;;;;;;9.00;4.40;;;19.90;30.50;;;;;;4992200;28;20202;-73
2021/05/10 05:51:21;;;;;;;4.47;3.50;;;19.90;30.40;;;;;;4992854;28;20445;-74
2021/05/10 05:53:46;;;;;;;4.07;3.30;;;19.80;30.70;;;;;;4992369;28;20494;-75
2021/05/10 05:56:12;;;;;;;4.93;3.80;;;19.80;30.70;;;;;;4991706;28;20456;-73
2021/05/10 05:58:37;;;;;;;5.03;4.63;;;19.80;30.90;;;;;;4992219;28;20198;-74
2021/05/10 06:01:03;;;;;;;4.67;4.27;;;19.70;30.90;;;;;;4992043;28;20213;-73
2021/05/10 06:03:29;;;;;;;4.87;4.37;;;19.70;31.10;;;;;;4992037;28;20198;-73
2021/05/10 06:05:54;;;;;;;6.67;4.07;;;19.70;31.00;;;;;;4991991;28;20178;-73
2021/05/10 06:08:20;;;;;;;4.63;4.33;;;19.70;30.80;;;;;;4992173;28;20174;-73
2021/05/10 06:10:46;;;;;;;4.27;3.90;;;19.70;30.80;;;;;;4991992;28;20177;-73
2021/05/10 06:13:12;;;;;;;5.60;4.20;;;19.70;30.70;;;;;;4991876;28;20216;-73
2021/05/10 06:15:38;;;;;;;5.80;4.80;;;19.70;30.80;;;;;;4992039;28;20437;-73
2021/05/10 06:18:07;;;;;;;7.40;4.97;;;19.70;30.90;;;;;;4991709;28;20215;-70
2021/05/10 06:20:33;;;;;;;7.63;5.30;;;19.70;31.00;;;;;;4991873;28;20689;-71
2021/05/10 06:22:58;;;;;;;7.57;5.03;;;19.70;31.00;;;;;;4992075;28;20501;-72
2021/05/10 06:25:25;;;;;;;8.17;6.60;;;19.70;31.20;;;;;;4990383;28;20170;-71
2021/05/10 06:27:52;;;;;;;6.63;5.30;;;19.80;31.30;;;;;;4992148;28;20182;-73
2021/05/10 06:30:18;;;;;;;7.43;5.20;;;19.70;31.30;;;;;;4991931;28;20986;-73
2021/05/10 06:32:44;;;;;;;6.90;5.20;;;19.70;31.70;;;;;;4991790;28;20410;-72
2021/05/10 06:35:10;;;;;;;5.93;5.33;;;19.70;31.60;;;;;;4991096;28;20496;-74
2021/05/10 06:37:36;;;;;;;8.57;5.03;;;19.70;31.70;;;;;;4994650;28;20171;-73
2021/05/10 06:40:02;;;;;;;6.57;5.20;;;19.70;31.60;;;;;;4995006;28;20487;-73
2021/05/10 06:42:28;;;;;;;7.23;6.30;;;19.70;31.10;;;;;;4995084;28;20300;-72
2021/05/10 06:44:54;;;;;;;6.77;5.20;;;19.80;31.50;;;;;;4995341;28;20488;-73
2021/05/10 06:47:21;;;;;;;6.67;5.20;;;19.80;32.20;;;;;;4995197;28;20170;-72
2021/05/10 06:49:46;;;;;;;8.60;5.30;;;19.80;32.20;;;;;;4995303;28;20429;-73
2021/05/10 06:52:12;;;;;;;16.53;5.57;;;19.90;32.50;;;;;;4993711;28;20413;-73
2021/05/10 06:54:37;;;;;;;5.70;5.07;;;19.90;32.80;;;;;;5014071;28;20178;-73
2021/05/10 06:57:03;;;;;;;6.97;5.80;;;19.90;32.60;;;;;;5013633;28;20248;-72
2021/05/10 06:59:29;;;;;;;8.57;5.20;;;19.90;32.60;;;;;;5014670;28;20445;-72
2021/05/10 07:01:54;;;;;;;6.53;5.10;;;19.90;32.40;;;;;;5014130;28;20296;-72
2021/05/10 07:04:20;;;;;;;8.67;5.27;;;20.00;31.80;;;;;;5014465;28;20169;-73
2021/05/10 07:06:46;;;;;;;6.43;5.73;;;20.00;32.30;;;;;;5014217;28;20165;-72
2021/05/10 07:09:11;;;;;;;7.43;5.17;;;20.00;32.20;;;;;;5014143;28;20632;-72
2021/05/10 07:11:37;;;;;;;6.53;4.63;;;20.00;31.70;;;;;;5014151;28;20293;-73
2021/05/10 07:14:03;;;;;;;5.10;4.70;;;20.00;32.00;;;;;;5013218;28;20196;-72
2021/05/10 07:16:29;;;;;;;4.83;4.53;;;20.00;31.90;;;;;;5013855;28;20417;-72
2021/05/10 07:18:55;;;;;;;6.63;4.90;;;20.00;31.80;;;;;;4998162;28;20452;-72
2021/05/10 07:21:22;;;;;;;6.30;4.90;;;20.10;31.90;;;;;;4994404;28;20244;-72
2021/05/10 07:23:47;;;;;;;19.83;6.00;;;20.00;31.70;;;;;;4994085;28;20680;-72
2021/05/10 07:26:13;;;;;;;6.07;5.57;;;20.10;31.90;;;;;;4992872;28;20445;-73
2021/05/10 07:28:39;;;;;;;5.97;5.37;;;20.00;31.70;;;;;;4994256;28;20277;-72
2021/05/10 07:31:04;;;;;;;5.70;5.07;;;20.10;31.70;;;;;;4994191;28;20182;-73
2021/05/10 07:33:30;;;;;;;4.73;4.43;;;20.10;31.70;;;;;;4994227;28;20185;-73
2021/05/10 07:35:55;;;;;;;7.50;5.97;;;20.00;30.30;;;;;;4994160;28;20190;-73
2021/05/10 07:38:21;;;;;;;7.70;5.10;;;20.00;30.00;;;;;;4993696;28;20196;-73
2021/05/10 07:40:47;;;;;;;5.40;5.00;;;20.00;30.50;;;;;;4993964;28;20248;-72
2021/05/10 07:43:12;;;;;;;4.90;4.50;;;20.00;30.50;;;;;;4994151;28;20675;-73
2021/05/10 07:45:38;;;;;;;6.83;4.83;;;20.00;31.00;;;;;;4993310;28;20207;-72
2021/05/10 07:48:04;;;;;;;5.27;4.80;;;20.10;30.90;;;;;;4994061;28;20212;-71
2021/05/10 07:50:30;;;;;;;5.27;4.97;;;20.00;30.80;;;;;;4994041;28;20428;-71
2021/05/10 07:52:56;;;;;;;6.77;5.87;;;20.00;30.50;;;;;;4993691;28;20405;-71
2021/05/10 07:55:22;;;;;;;5.50;5.10;;;20.00;30.70;;;;;;4993608;28;20178;-72
2021/05/10 07:57:53;;;;;;;4.93;4.63;;;20.00;30.60;;;;;;4993880;28;20166;-72
2021/05/10 08:00:30;;;;;;;5.50;5.20;;;20.00;30.70;;;;;;4993493;28;20429;-72
2021/05/10 08:02:59;;;;;;;5.53;5.03;;;20.00;30.70;;;;;;4993783;28;20409;-73
2021/05/10 08:05:24;;;;;;;5.53;5.13;;;19.90;30.70;;;;;;4993361;28;20464;-72
2021/05/10 08:07:50;;;;;;;8.80;5.63;;;19.80;30.70;;;;;;4993502;28;21237;-75
2021/05/10 08:10:16;;;;;;;5.57;5.17;;;19.80;30.70;;;;;;4993631;28;20194;-72
2021/05/10 08:12:41;;;;;;;5.67;4.50;;;19.80;30.80;;;;;;4993573;28;20185;-72
2021/05/10 08:15:08;;;;;;;8.00;5.00;;;19.80;31.00;;;;;;4993010;28;20252;-72
2021/05/10 08:17:35;;;;;;;6.67;6.00;;;19.80;31.00;;;;;;4993499;28;20174;-72
2021/05/10 08:20:03;;;;;;;5.47;5.07;;;19.80;31.00;;;;;;4993149;28;20440;-73
2021/05/10 08:22:29;;;;;;;5.10;4.70;;;19.80;31.00;;;;;;4992879;28;20555;-72
2021/05/10 08:24:55;;;;;;;5.10;4.80;;;19.80;31.00;;;;;;4993229;28;20771;-72
2021/05/10 08:27:20;;;;;;;5.30;5.00;;;19.80;31.10;;;;;;4993102;28;20405;-72
2021/05/10 08:29:46;;;;;;;5.37;4.83;;;19.70;31.10;;;;;;4992751;28;20230;-71
2021/05/10 08:32:12;;;;;;;5.07;4.67;;;19.70;31.00;;;;;;4993251;28;20249;-71
2021/05/10 08:34:37;;;;;;;5.17;4.83;;;19.70;31.00;;;;;;4992611;28;20535;-71
2021/05/10 08:37:03;;;;;;;5.40;4.90;;;19.70;31.00;;;;;;4992648;28;20192;-71
2021/05/10 08:39:29;;;;;;;5.37;4.97;;;19.70;31.10;;;;;;4992843;28;20198;-72
2021/05/10 08:41:55;;;;;;;4.93;4.53;;;19.70;31.10;;;;;;4993044;28;20232;-72
2021/05/10 08:44:21;;;;;;;5.43;5.13;;;19.70;31.10;;;;;;4992939;28;20182;-72
2021/05/10 08:46:47;;;;;;;6.33;5.90;;;19.70;31.10;;;;;;4992633;28;20203;-72
2021/05/10 08:49:18;;;;;;;4.93;4.53;;;19.70;31.10;;;;;;4996931;28;20436;-72
2021/05/10 08:51:43;;;;;;;5.60;4.83;;;19.70;31.10;;;;;;5011479;28;20204;-72
2021/05/10 08:54:26;;;;;;;5.70;5.40;;;19.60;31.10;;;;;;5012221;28;20416;-72
2021/05/10 08:56:53;;;;;;;5.60;5.23;;;19.60;31.00;;;;;;5012250;28;20173;-73
2021/05/10 08:59:19;;;;;;;5.77;5.37;;;19.60;31.10;;;;;;5011543;28;20436;-72
2021/05/10 09:01:59;;;;;;;5.33;5.03;;;19.60;31.10;;;;;;5012267;28;20543;-72
2021/05/10 09:04:37;;;;;;;5.53;5.10;;;19.60;31.10;;;;;;5012363;28;20507;-72
2021/05/10 09:07:11;;;;;;;5.60;5.30;;;19.60;31.10;;;;;;5011875;28;20416;-72
2021/05/10 09:10:10;;;;;;;5.00;4.77;;;19.60;31.10;;;;;;5012247;28;20431;-73
2021/05/10 09:12:41;;;;;;;5.53;5.03;;;19.60;31.10;;;;;;5010031;28;20408;-72
2021/05/10 09:15:20;;;;;;;5.93;5.30;;;19.60;31.20;;;;;;4990082;28;20417;-72
2021/05/10 09:17:47;;;;;;;5.43;5.00;;;19.60;31.10;;;;;;4973411;28;20521;-72
2021/05/10 09:20:15;;;;;;;5.83;5.37;;;19.60;31.50;;;;;;4977158;28;21344;-71
2021/05/10 09:22:48;;;;;;;6.40;5.30;;;19.60;31.60;;;;;;4993861;28;20453;-73
2021/05/10 09:25:14;;;;;;;11.60;5.00;;;19.60;31.70;;;;;;4993437;28;20442;-73
2021/05/10 09:27:41;;;;;;;5.37;5.07;;;19.60;31.60;;;;;;4993510;28;20433;-73
2021/05/10 09:30:22;;;;;;;5.23;4.80;;;19.60;31.60;;;;;;4992351;28;20741;-73
2021/05/10 09:32:53;;;;;;;5.40;5.00;;;19.60;31.50;;;;;;4992448;28;20455;-73
2021/05/10 09:35:30;;;;;;;4.53;4.33;;;19.60;31.50;;;;;;4992318;28;20436;-73
2021/05/10 09:38:01;;;;;;;5.67;5.20;;;19.60;31.40;;;;;;4991881;28;20440;-72
2021/05/10 09:40:30;;;;;;;5.43;5.10;;;19.60;31.60;;;;;;4992207;28;20919;-72
2021/05/10 09:42:58;;;;;;;5.47;5.07;;;19.60;31.50;;;;;;4992513;28;20786;-72
2021/05/10 09:45:41;;;;;;;6.27;5.10;;;19.60;31.50;;;;;;4991824;28;20773;-72
2021/05/10 09:48:08;;;;;;;6.03;4.83;;;19.60;31.50;;;;;;4992267;28;20938;-72
2021/05/10 09:50:37;;;;;;;4.87;4.57;;;19.60;31.50;;;;;;4992277;28;20433;-71
2021/05/10 09:53:04;;;;;;;4.73;4.53;;;19.60;31.40;;;;;;4992153;28;20413;-72
2021/05/10 09:55:48;;;;;;;5.10;4.80;;;19.60;31.70;;;;;;4991634;28;20432;-72
2021/05/10 09:58:14;;;;;;;5.00;4.70;;;19.60;31.60;;;;;;4992091;28;20413;-72
2021/05/10 10:00:41;;;;;;;5.33;4.93;;;19.60;31.60;;;;;;4991832;28;20496;-72
2021/05/10 10:03:25;;;;;;;5.27;5.07;;;19.60;31.40;;;;;;4992146;28;20437;-73
2021/05/10 10:05:56;;;;;;;5.67;5.17;;;19.60;31.20;;;;;;4991946;28;20421;-72
2021/05/10 10:08:23;;;;;;;5.40;5.10;;;19.60;31.20;;;;;;4991972;28;20409;-72
2021/05/10 10:10:49;;;;;;;5.50;5.10;;;19.60;31.30;;;;;;4995750;28;20420;-71
2021/05/10 10:13:16;;;;;;;5.30;5.00;;;19.60;31.20;;;;;;4995735;28;20777;-74
2021/05/10 10:15:42;;;;;;;5.00;4.80;;;19.60;31.30;;;;;;4995665;28;20409;-72
2021/05/10 10:18:10;;;;;;;5.30;5.00;;;19.60;31.40;;;;;;4995770;28;20915;-72
2021/05/10 10:20:38;;;;;;;5.73;5.43;;;19.60;31.20;;;;;;4995259;28;21011;-71
2021/05/10 10:23:07;;;;;;;5.33;5.00;;;19.60;31.30;;;;;;4995456;28;20420;-71
2021/05/10 10:25:35;;;;;;;6.10;5.80;;;19.60;31.30;;;;;;4998216;28;20412;-72
2021/05/10 10:28:01;;;;;;;5.50;5.20;;;19.50;31.20;;;;;;5015218;28;20411;-71
2021/05/10 10:30:27;;;;;;;6.57;6.00;;;19.60;31.60;;;;;;5013268;28;20538;-72
2021/05/10 10:32:55;;;;;;;5.60;4.90;;;19.60;32.20;;;;;;4994158;28;20488;-71
2021/05/10 10:35:23;;;;;;;5.83;5.47;;;19.70;33.50;;;;;;4994395;28;20919;-72
2021/05/10 10:37:50;;;;;;;5.43;5.13;;;19.80;32.70;;;;;;4995045;28;20840;-72
2021/05/10 10:40:21;;;;;;;5.57;5.10;;;19.80;33.90;;;;;;4994776;28;20523;-72
2021/05/10 10:42:46;;;;;;;6.20;5.80;;;19.80;32.60;;;;;;4995469;28;20441;-72
2021/05/10 10:45:12;;;;;;;5.47;5.07;;;19.80;33.00;;;;;;4999119;28;20827;-72
2021/05/10 10:47:45;;;;;;;5.50;5.10;;;19.80;33.00;;;;;;5015126;28;20177;-72
2021/05/10 10:50:15;;;;;;;5.70;5.40;;;19.90;33.20;;;;;;5000168;28;20664;-72
2021/05/10 10:52:52;;;;;;;5.30;4.90;;;19.90;32.30;;;;;;4998747;28;20409;-73
2021/05/10 10:55:22;;;;;;;5.53;5.13;;;19.90;32.90;;;;;;4995346;28;20405;-72
2021/05/10 10:57:48;;;;;;;5.87;5.43;;;20.00;32.60;;;;;;4994242;28;20441;-72
2021/05/10 11:00:18;;;;;;;5.30;5.00;;;19.90;32.80;;;;;;4995405;28;20429;-72
2021/05/10 11:02:54;;;;;;;5.67;5.27;;;20.00;32.80;;;;;;4993457;28;20491;-72
2021/05/10 11:05:21;;;;;;;5.30;4.80;;;19.90;32.40;;;;;;4994814;28;20419;-72
2021/05/10 11:07:57;;;;;;;6.40;5.90;;;20.00;32.60;;;;;;4994836;28;20417;-73
2021/05/10 11:10:42;;;;;;;6.13;5.73;;;20.00;32.70;;;;;;4978424;28;20448;-72
2021/05/10 11:13:26;;;;;;;5.30;4.90;;;20.00;33.20;;;;;;4993402;28;20429;-72
2021/05/10 11:15:52;;;;;;;8.03;5.40;;;20.00;32.80;;;;;;4994818;28;20895;-72
2021/05/10 11:18:46;;;;;;;8.23;5.33;;;20.00;32.60;;;;;;4994542;28;20496;-72
2021/05/10 11:21:24;;;;;;;5.87;5.37;;;20.00;33.30;;;;;;4992472;28;20823;-72
2021/05/10 11:23:59;;;;;;;5.57;5.07;;;20.00;32.80;;;;;;4994630;28;20466;-72
2021/05/10 11:26:37;;;;;;;6.23;5.33;;;20.00;32.90;;;;;;4994259;28;20417;-73
2021/05/10 11:29:05;;;;;;;6.00;5.40;;;20.00;33.10;;;;;;4992862;28;20465;-72
2021/05/10 11:31:36;;;;;;;5.63;5.00;;;20.00;33.10;;;;;;4994250;28;20436;-73
2021/05/10 11:34:04;;;;;;;4.60;4.30;;;19.90;32.70;;;;;;4993993;28;20425;-72
2021/05/10 11:36:50;;;;;;;7.60;4.77;;;19.90;32.60;;;;;;4993515;28;20439;-72
2021/05/10 11:39:23;;;;;;;5.60;4.90;;;19.90;32.80;;;;;;4994225;28;20445;-73
2021/05/10 11:41:50;;;;;;;5.20;4.60;;;19.90;33.10;;;;;;4994110;28;20493;-72
2021/05/10 11:44:28;;;;;;;10.10;5.63;;;19.90;33.20;;;;;;4992579;28;20418;-72
2021/05/10 11:46:56;;;;;;;5.43;4.70;;;19.90;33.30;;;;;;4993877;28;20431;-73
2021/05/10 11:49:42;;;;;;;4.97;4.47;;;19.90;32.80;;;;;;4994038;28;20429;-72
2021/05/10 11:52:20;;;;;;;8.07;5.17;;;19.90;32.60;;;;;;4993835;28;20461;-73
2021/05/10 11:54:45;;;;;;;5.80;4.93;;;19.80;32.20;;;;;;4993779;28;20507;-72
2021/05/10 11:57:12;;;;;;;6.17;3.60;;;19.80;32.30;;;;;;4993470;28;20452;-72
2021/05/10 12:02:27;;;;;;;3.97;3.73;;;19.70;31.40;;;;;;4993872;28;20468;-73
2021/05/10 12:04:57;;;;;;;4.60;4.20;;;19.60;31.20;;;;;;4993516;28;20480;-73
2021/05/10 12:07:26;;;;;;;4.23;3.57;;;19.60;31.20;;;;;;4993404;28;20984;-72
2021/05/10 12:09:59;;;;;;;9.67;3.63;;;19.60;31.70;;;;;;4993208;28;20429;-74
2021/05/10 12:12:33;;;;;;;4.37;3.87;;;19.60;31.70;;;;;;4993480;28;20421;-73
2021/05/10 12:15:15;;;;;;;4.00;3.60;;;19.60;31.80;;;;;;4993658;28;20412;-73
2021/05/10 12:17:47;;;;;;;4.17;3.87;;;19.60;31.60;;;;;;4993392;28;20413;-72
2021/05/10 12:20:17;;;;;;;4.80;4.40;;;19.60;31.80;;;;;;4993116;28;20516;-74
2021/05/10 12:22:48;;;;;;;4.83;4.03;;;19.60;31.70;;;;;;4993366;28;20457;-73
2021/05/10 12:25:24;;;;;;;6.00;4.20;;;19.70;32.30;;;;;;4993273;28;20405;-73
2021/05/10 12:28:13;;;;;;;4.87;4.37;;;19.70;32.10;;;;;;4993290;28;20405;-73
2021/05/10 12:30:46;;;;;;;5.73;4.70;;;19.70;32.10;;;;;;4991926;28;20534;-73
2021/05/10 12:33:17;;;;;;;6.70;4.23;;;19.80;32.20;;;;;;4993051;28;20476;-73
2021/05/10 12:35:48;;;;;;;7.70;3.70;;;19.80;32.00;;;;;;4992867;28;21068;-73
2021/05/10 12:38:38;;;;;;;4.00;3.70;;;19.80;31.70;;;;;;4991441;28;20463;-73
2021/05/10 12:41:08;;;;;;;2.97;2.87;;;19.70;30.00;;;;;;4996382;28;20460;-73
2021/05/10 12:43:48;;;;;;;4.30;3.90;;;19.70;29.80;;;;;;5002326;28;20432;-73
2021/05/10 12:46:14;;;;;;;4.33;3.80;;;19.60;30.40;;;;;;4992995;28;20432;-73
2021/05/10 12:48:45;;;;;;;3.47;3.27;;;19.70;31.00;;;;;;4993004;28;20437;-72
2021/05/10 12:51:23;;;;;;;4.30;4.07;;;19.70;30.10;;;;;;4992974;28;20662;-72
2021/05/10 12:54:01;;;;;;;3.53;3.23;;;19.70;30.40;;;;;;4991696;28;20425;-73
2021/05/10 12:56:29;;;;;;;3.47;3.30;;;19.60;29.70;;;;;;4992297;28;20416;-72
2021/05/10 12:59:00;;;;;;;3.07;2.87;;;19.60;29.70;;;;;;4993029;28;20437;-72
2021/05/10 13:01:30;;;;;;;3.83;3.37;;;19.70;30.30;;;;;;4993256;28;20828;-73